Time;durP1;ratioP1;P1;durP2;ratioP2;P2;SDS_P1;SDS_P2;PMS_P1;PMS_P2;Temp;Humidity;BMP_temperature;BMP_pressure;BME280_temperature;BME280_humidity;BME280_pressure;Samples;Min_cycle;Max_cycle;Signal;HPM_P1;HPM_P2
2022/11/12 00:00:42;;;;;;;42.03;24.20;;;;;;;5.10;100.00;102953.53;5112877;28;20558;-86
2022/11/12 00:03:08;;;;;;;40.30;23.67;;;;;;;5.05;100.00;102963.84;5112963;28;20452;-86
2022/11/12 00:05:37;;;;;;;41.38;23.38;;;;;;;5.00;100.00;102965.19;5113202;28;20062;-86
2022/11/12 00:08:03;;;;;;;37.15;22.23;;;;;;;4.94;100.00;102973.78;5112896;28;20039;-86
2022/11/12 00:10:32;;;;;;;40.03;21.63;;;;;;;4.89;100.00;102971.47;5095793;28;20039;-89
2022/11/12 00:13:00;;;;;;;39.95;22.13;;;;;;;4.85;100.00;102975.38;5130083;28;20046;-86
2022/11/12 00:15:26;;;;;;;37.25;21.88;;;;;;;4.84;100.00;102982.59;5112398;28;20055;-86
2022/11/12 00:17:51;;;;;;;39.23;22.40;;;;;;;4.77;100.00;102970.63;5112564;28;20468;-86
2022/11/12 00:20:17;;;;;;;32.37;20.50;;;;;;;4.75;100.00;102967.19;5112818;28;20118;-86
2022/11/12 00:22:42;;;;;;;34.60;20.38;;;;;;;4.72;100.00;102981.78;5078708;28;20285;-86
2022/11/12 00:25:08;;;;;;;35.80;21.17;;;;;;;4.67;100.00;102977.75;5113322;28;20036;-86
2022/11/12 00:27:34;;;;;;;35.15;21.33;;;;;;;4.66;100.00;102981.41;5114238;28;20512;-86
2022/11/12 00:30:04;;;;;;;32.93;19.20;;;;;;;4.62;100.00;102990.69;5095462;28;20476;-86
2022/11/12 00:32:30;;;;;;;33.53;20.58;;;;;;;4.59;100.00;102988.25;5096823;28;20050;-86
2022/11/12 00:34:55;;;;;;;33.93;20.80;;;;;;;4.55;100.00;102985.81;5114113;28;20036;-86
2022/11/12 00:37:22;;;;;;;33.37;20.43;;;;;;;4.56;100.00;102992.03;5112231;28;20525;-86
2022/11/12 00:39:48;;;;;;;34.45;20.50;;;;;;;4.51;100.00;102986.19;5130046;28;20036;-86
2022/11/12 00:42:13;;;;;;;36.67;22.75;;;;;;;4.50;100.00;102987.16;5112378;28;20463;-86
2022/11/12 00:44:38;;;;;;;39.03;19.97;;;;;;;4.50;100.00;102987.16;5128998;28;20056;-85
2022/11/12 00:47:07;;;;;;;36.13;21.13;;;;;;;4.48;100.00;102978.38;5112076;28;20047;-85
2022/11/12 00:49:32;;;;;;;40.33;22.35;;;;;;;4.46;100.00;102978.50;5113646;28;20089;-86
2022/11/12 00:52:00;;;;;;;35.93;20.57;;;;;;;4.43;100.00;102976.06;5095418;28;20063;-86
2022/11/12 00:54:26;;;;;;;34.17;20.60;;;;;;;4.42;100.00;102982.41;5129479;28;20467;-86
2022/11/12 00:56:51;;;;;;;34.20;20.90;;;;;;;4.42;100.00;102985.06;5111994;28;20092;-86
2022/11/12 00:59:17;;;;;;;33.13;20.27;;;;;;;4.41;100.00;102980.66;5112155;28;20393;-85
2022/11/12 01:01:44;;;;;;;35.87;20.63;;;;;;;4.40;100.00;102978.97;5111993;28;20390;-86
2022/11/12 01:04:10;;;;;;;31.27;19.45;;;;;;;4.39;100.00;102974.56;5078668;28;20365;-86
2022/11/12 01:06:39;;;;;;;31.67;19.17;;;;;;;4.38;100.00;102983.59;5112879;28;20053;-86
2022/11/12 01:09:05;;;;;;;33.25;20.38;;;;;;;4.37;100.00;102973.81;5112239;28;20067;-86
2022/11/12 01:11:36;;;;;;;32.90;19.87;;;;;;;4.35;100.00;102968.56;5078026;28;20086;-86
2022/11/12 01:14:15;;;;;;;34.22;20.85;;;;;;;4.35;100.00;102965.03;5111998;28;20036;-86
2022/11/12 01:16:50;;;;;;;35.63;19.73;;;;;;;4.33;100.00;102967.84;5112552;28;20071;-86
2022/11/12 01:19:30;;;;;;;32.10;20.17;;;;;;;4.34;100.00;102969.56;5112099;28;20035;-86
2022/11/12 01:22:24;;;;;;;30.02;19.13;;;;;;;4.31;100.00;102974.31;5129187;28;20047;-86
2022/11/12 01:24:59;;;;;;;35.10;19.52;;;;;;;4.29;100.00;102968.22;5112199;28;20070;-86
2022/11/12 01:27:25;;;;;;;35.53;18.77;;;;;;;4.26;100.00;102974.69;5097875;28;20134;-86
2022/11/12 01:29:58;;;;;;;30.87;19.53;;;;;;;4.22;100.00;102967.84;5132974;27;20040;-87
2022/11/12 01:32:24;;;;;;;31.80;18.88;;;;;;;4.21;100.00;102974.22;5117155;27;20046;-87
2022/11/12 01:34:52;;;;;;;30.97;18.80;;;;;;;4.18;100.00;102963.72;5132405;27;20040;-87
2022/11/12 01:37:17;;;;;;;33.92;19.48;;;;;;;4.16;100.00;102963.84;5098904;28;20039;-86
2022/11/12 01:39:43;;;;;;;30.40;18.90;;;;;;;4.14;100.00;102968.44;5115626;28;20192;-87
2022/11/12 01:42:12;;;;;;;29.63;17.63;;;;;;;4.09;100.00;102959.91;5133300;27;20036;-87
2022/11/12 01:44:43;;;;;;;29.67;17.77;;;;;;;4.07;100.00;102958.31;5115206;28;20044;-86
2022/11/12 01:47:28;;;;;;;30.58;19.20;;;;;;;4.03;100.00;102958.56;5115681;28;20042;-86
2022/11/12 01:50:05;;;;;;;32.17;18.40;;;;;;;4.03;100.00;102958.56;5115234;28;20067;-86
2022/11/12 01:52:47;;;;;;;31.63;18.77;;;;;;;4.00;100.00;102960.63;5115299;28;20036;-85
2022/11/12 01:55:18;;;;;;;30.50;19.15;;;;;;;3.98;100.00;102958.03;5132102;27;20039;-86
2022/11/12 01:57:57;;;;;;;31.27;18.67;;;;;;;3.98;100.00;102962.56;5115273;28;20036;-86
2022/11/12 02:00:23;;;;;;;27.55;17.88;;;;;;;3.95;100.00;102954.75;5115605;28;20036;-86
2022/11/12 02:02:54;;;;;;;33.53;18.25;;;;;;;3.94;100.00;102963.78;5132088;27;20190;-87
2022/11/12 02:05:21;;;;;;;29.02;17.63;;;;;;;3.90;100.00;102957.81;5115309;28;20035;-86
2022/11/12 02:07:50;;;;;;;28.98;17.70;;;;;;;3.92;100.00;102960.38;5115188;28;20096;-86
2022/11/12 02:10:16;;;;;;;29.52;19.05;;;;;;;3.89;100.00;102955.25;5114876;28;20066;-86
2022/11/12 02:15:29;;;;;;;28.77;18.23;;;;;;;3.78;100.00;102951.56;5115681;28;20387;-86
2022/11/12 02:18:00;;;;;;;32.87;18.27;;;;;;;3.77;100.00;102959.75;5097463;28;20134;-86
2022/11/12 02:20:25;;;;;;;29.13;17.92;;;;;;;3.75;100.00;102958.97;5098292;28;20484;-86
2022/11/12 02:22:50;;;;;;;25.83;17.67;;;;;;;3.69;100.00;102963.88;5114668;28;20043;-86
2022/11/12 02:25:22;;;;;;;29.40;18.73;;;;;;;3.65;100.00;102953.50;5132547;27;20437;-86
2022/11/12 02:27:51;;;;;;;28.00;17.97;;;;;;;3.64;100.00;102957.13;5132020;27;20069;-86
2022/11/12 02:30:18;;;;;;;31.10;17.25;;;;;;;3.66;100.00;102955.19;5131298;27;20032;-86
2022/11/12 02:32:44;;;;;;;29.23;18.38;;;;;;;3.65;100.00;102962.38;5114726;28;20039;-86
2022/11/12 02:35:09;;;;;;;31.43;17.73;;;;;;;3.65;100.00;102951.66;5113584;28;20126;-86
2022/11/12 02:37:35;;;;;;;30.83;17.20;;;;;;;3.66;100.00;102950.69;5114132;28;20047;-86
2022/11/12 02:40:00;;;;;;;31.27;18.73;;;;;;;3.64;100.00;102952.59;5098023;28;20138;-86
2022/11/12 02:42:26;;;;;;;28.17;16.93;;;;;;;3.63;100.00;102953.59;5115016;28;20043;-86
2022/11/12 02:44:51;;;;;;;31.75;17.85;;;;;;;3.64;100.00;102957.97;5130836;27;20768;-86
2022/11/12 02:47:17;;;;;;;28.53;17.33;;;;;;;3.64;100.00;102949.09;5130647;27;20040;-86
2022/11/12 02:49:43;;;;;;;28.23;17.73;;;;;;;3.64;100.00;102947.25;5114029;28;20477;-87
2022/11/12 02:52:11;;;;;;;27.80;17.10;;;;;;;3.64;100.00;102939.19;5131186;27;20038;-86
2022/11/12 02:54:39;;;;;;;28.58;17.38;;;;;;;3.63;100.00;102940.19;5113980;28;20067;-86
2022/11/12 02:57:04;;;;;;;27.30;17.15;;;;;;;3.64;100.00;102938.34;5115542;28;20071;-87
2022/11/12 02:59:33;;;;;;;27.07;17.73;;;;;;;3.61;100.00;102931.38;5130892;27;20131;-87
2022/11/12 03:01:58;;;;;;;31.10;17.98;;;;;;;3.61;100.00;102934.06;5113557;28;20123;-87
2022/11/12 03:04:23;;;;;;;27.63;17.30;;;;;;;3.57;100.00;102927.22;5097389;28;20127;-86
2022/11/12 03:06:54;;;;;;;33.50;16.37;;;;;;;3.54;100.00;102927.44;5115106;28;20032;-85
2022/11/12 03:09:19;;;;;;;29.77;16.45;;;;;;;3.53;100.00;102931.13;5113819;28;20039;-85
2022/11/12 03:11:48;;;;;;;27.10;17.20;;;;;;;3.53;100.00;102935.63;5079815;28;20046;-86
2022/11/12 03:14:13;;;;;;;29.35;17.13;;;;;;;3.46;100.00;102936.09;5113997;28;20131;-86
2022/11/12 03:16:39;;;;;;;24.77;15.57;;;;;;;3.44;100.00;102935.38;5113347;28;20534;-86
2022/11/12 03:19:04;;;;;;;26.65;15.93;;;;;;;3.45;100.00;102944.25;5113205;28;20071;-86
2022/11/12 03:21:32;;;;;;;27.23;16.90;;;;;;;3.46;100.00;102943.31;5113201;28;20047;-86
2022/11/12 03:23:57;;;;;;;26.60;16.40;;;;;;;3.47;100.00;102950.34;5097595;28;20057;-86
2022/11/12 03:26:23;;;;;;;26.17;15.43;;;;;;;3.48;100.00;102952.06;5113046;28;20532;-86
2022/11/12 03:28:50;;;;;;;26.03;15.60;;;;;;;3.44;100.00;102951.47;5096406;28;20044;-86
2022/11/12 03:31:15;;;;;;;27.80;16.10;;;;;;;3.44;100.00;102958.66;5113296;28;20039;-87
2022/11/12 03:33:41;;;;;;;27.53;15.33;;;;;;;3.42;100.00;102944.50;5113558;28;20034;-87
2022/11/12 03:36:12;;;;;;;25.17;15.50;;;;;;;3.43;100.00;102947.06;5113323;28;20036;-86
2022/11/12 03:38:42;;;;;;;30.45;14.73;;;;;;;3.46;100.00;102952.19;5114482;28;20044;-86
2022/11/12 03:41:08;;;;;;;23.98;14.30;;;;;;;3.45;100.00;102955.00;5095967;28;20396;-87
2022/11/12 03:43:33;;;;;;;25.33;14.73;;;;;;;3.43;100.00;102960.47;5112314;28;20077;-86
2022/11/12 03:46:01;;;;;;;24.53;13.93;;;;;;;3.45;100.00;102958.53;5113109;28;20464;-86
2022/11/12 03:48:27;;;;;;;25.75;14.02;;;;;;;3.46;100.00;102959.41;5112926;28;20042;-87
2022/11/12 03:50:57;;;;;;;24.85;13.73;;;;;;;3.43;100.00;102963.16;5112308;28;20134;-86
2022/11/12 03:53:25;;;;;;;20.55;13.00;;;;;;;3.41;100.00;102950.84;5113015;28;20176;-86
2022/11/12 03:55:51;;;;;;;21.75;13.60;;;;;;;3.40;100.00;102952.66;5096269;28;20437;-87
2022/11/12 03:58:16;;;;;;;25.80;14.88;;;;;;;3.39;100.00;102959.00;5112925;28;20061;-86
2022/11/12 04:00:42;;;;;;;22.85;13.52;;;;;;;3.36;100.00;102951.19;5113349;28;20581;-86
2022/11/12 04:03:10;;;;;;;22.17;12.43;;;;;;;3.35;100.00;102952.16;5130203;27;20464;-87
2022/11/12 04:08:37;;;;;;;19.70;11.90;;;;;;;3.43;100.00;102957.81;5114391;28;20092;-87
2022/11/12 04:11:13;;;;;;;21.60;12.03;;;;;;;3.44;100.00;102946.09;5114023;28;20468;-87
2022/11/12 04:13:46;;;;;;;24.70;12.73;;;;;;;3.43;100.00;102941.69;5095763;28;20050;-86
2022/11/12 04:22:03;;;;;;;28.02;12.32;;;;;;;3.37;100.00;102936.81;5114564;28;20047;-86
2022/11/12 04:27:20;;;;;;;17.67;11.48;;;;;;;3.33;100.00;102932.63;5113979;28;20097;-86
2022/11/12 04:32:33;;;;;;;17.63;11.27;;;;;;;3.28;100.00;102927.63;5114153;28;20043;-86
2022/11/12 04:35:01;;;;;;;17.33;10.68;;;;;;;3.26;100.00;102926.91;5096069;28;20077;-87
2022/11/12 04:37:43;;;;;;;18.33;10.97;;;;;;;3.25;100.00;102930.53;5095606;28;20545;-86
2022/11/12 04:45:47;;;;;;;19.42;11.23;;;;;;;3.17;100.00;102930.25;5113873;28;20086;-86
2022/11/12 04:48:12;;;;;;;17.33;10.32;;;;;;;3.20;100.00;102934.53;5129548;28;20070;-86
2022/11/12 04:50:39;;;;;;;17.53;10.40;;;;;;;3.17;100.00;102927.56;5112483;28;20055;-86
2022/11/12 04:53:05;;;;;;;21.20;11.52;;;;;;;3.17;100.00;102935.63;5095615;28;20043;-86
2022/11/12 04:55:34;;;;;;;19.30;9.97;;;;;;;3.13;100.00;102926.06;5112000;28;20047;-86
2022/11/12 04:58:02;;;;;;;19.88;10.98;;;;;;;3.11;100.00;102912.78;5113351;28;20133;-86
2022/11/12 05:00:30;;;;;;;17.33;10.38;;;;;;;3.08;100.00;102915.69;5112298;28;20452;-86
2022/11/12 05:02:56;;;;;;;18.48;10.68;;;;;;;3.07;100.00;102911.34;5116239;28;20093;-86
2022/11/12 05:05:21;;;;;;;21.95;10.93;;;;;;;3.07;100.00;102913.13;5098896;28;20044;-87
2022/11/12 05:07:49;;;;;;;21.73;10.37;;;;;;;3.07;100.00;102915.81;5133253;27;20031;-86
2022/11/12 05:10:15;;;;;;;17.70;10.88;;;;;;;3.08;100.00;102912.19;5116101;28;20039;-86
2022/11/12 05:12:41;;;;;;;19.13;10.70;;;;;;;3.05;100.00;102905.19;5098735;28;20043;-87
2022/11/12 05:15:12;;;;;;;22.17;11.15;;;;;;;3.06;100.00;102911.44;5133187;27;20039;-86
2022/11/12 05:17:42;;;;;;;16.30;10.15;;;;;;;3.06;100.00;102906.09;5115913;28;20476;-86
2022/11/12 05:20:09;;;;;;;20.37;11.03;;;;;;;3.09;100.00;102906.69;5099707;28;20090;-87
2022/11/12 05:22:35;;;;;;;18.92;10.18;;;;;;;3.09;100.00;102901.31;5099575;28;20128;-86
2022/11/12 05:25:00;;;;;;;19.27;10.23;;;;;;;3.09;100.00;102900.47;5081541;28;20040;-86
2022/11/12 05:27:33;;;;;;;17.67;10.45;;;;;;;3.07;100.00;102894.34;5115991;28;20281;-86
2022/11/12 05:29:58;;;;;;;17.95;10.25;;;;;;;3.06;100.00;102904.25;5100561;28;20050;-87
2022/11/12 05:32:24;;;;;;;19.95;10.15;;;;;;;3.04;100.00;102900.84;5115931;28;20118;-87
2022/11/12 05:34:52;;;;;;;18.40;10.00;;;;;;;3.05;100.00;102896.31;5115398;28;20039;-86
2022/11/12 05:37:20;;;;;;;19.20;10.57;;;;;;;3.04;100.00;102889.22;5098540;28;20039;-86
2022/11/12 05:39:45;;;;;;;17.92;10.50;;;;;;;3.01;100.00;102898.34;5115188;28;20047;-86
2022/11/12 05:42:17;;;;;;;17.20;10.13;;;;;;;2.98;100.00;102894.09;5116093;28;20028;-86
2022/11/12 05:44:42;;;;;;;17.95;10.05;;;;;;;2.96;100.00;102892.50;5098620;28;20055;-86
2022/11/12 05:47:08;;;;;;;17.40;10.20;;;;;;;2.96;100.00;102892.50;5132105;27;20483;-86
2022/11/12 05:49:36;;;;;;;17.33;10.50;;;;;;;2.95;100.00;102899.69;5132652;27;20031;-86
2022/11/12 05:52:10;;;;;;;18.15;10.05;;;;;;;2.91;100.00;102892.84;5132961;27;20031;-85
2022/11/12 05:54:36;;;;;;;16.95;9.88;;;;;;;2.92;100.00;102894.56;5114903;28;20044;-86
2022/11/12 05:57:01;;;;;;;19.47;10.27;;;;;;;2.90;100.00;102898.31;5115152;28;20036;-87
2022/11/12 05:59:27;;;;;;;17.13;10.13;;;;;;;2.90;100.00;102898.31;5097742;28;20039;-87
2022/11/12 06:01:52;;;;;;;16.63;9.43;;;;;;;2.90;100.00;102895.63;5116449;27;20403;-87
2022/11/12 06:04:18;;;;;;;18.07;10.07;;;;;;;2.90;100.00;102901.84;5114680;28;20123;-87
2022/11/12 06:06:43;;;;;;;19.90;9.83;;;;;;;2.91;100.00;102900.88;5098023;28;20037;-86
2022/11/12 06:09:09;;;;;;;18.27;9.57;;;;;;;2.89;100.00;102897.44;5115496;28;20036;-86
2022/11/12 06:11:35;;;;;;;18.17;9.87;;;;;;;2.88;100.00;102890.41;5114554;28;20043;-87
2022/11/12 06:14:01;;;;;;;20.75;9.77;;;;;;;2.89;100.00;102891.25;5131043;27;20058;-86
2022/11/12 06:16:28;;;;;;;18.63;10.07;;;;;;;2.88;100.00;102901.13;5131632;27;20036;-86
2022/11/12 06:18:53;;;;;;;19.65;9.70;;;;;;;2.85;100.00;102898.66;5114604;28;20035;-87
2022/11/12 06:21:21;;;;;;;16.00;8.83;;;;;;;2.87;100.00;102904.75;5132021;27;20365;-88
2022/11/12 06:24:05;;;;;;;16.20;9.40;;;;;;;2.86;100.00;102904.88;5098000;28;20443;-88
2022/11/12 06:26:31;;;;;;;16.63;9.47;;;;;;;2.83;100.00;102908.63;5132654;27;20035;-88
2022/11/12 06:28:59;;;;;;;18.42;9.55;;;;;;;2.81;100.00;102910.59;5114684;28;20387;-88
2022/11/12 06:31:25;;;;;;;17.48;9.35;;;;;;;2.79;100.00;102910.69;5114653;28;20043;-86
2022/11/12 06:33:50;;;;;;;16.40;9.55;;;;;;;2.77;100.00;102901.91;5115741;28;20487;-86
2022/11/12 06:36:18;;;;;;;16.17;9.10;;;;;;;2.79;100.00;102907.16;5097539;28;20193;-86
2022/11/12 06:38:44;;;;;;;17.67;9.77;;;;;;;2.78;100.00;102908.97;5114632;28;20040;-86
2022/11/12 06:41:11;;;;;;;16.70;9.80;;;;;;;2.79;100.00;102910.69;5096928;28;20395;-87
2022/11/12 06:43:37;;;;;;;15.88;9.35;;;;;;;2.82;100.00;102904.25;5115369;28;20444;-86
2022/11/12 06:46:10;;;;;;;16.73;9.68;;;;;;;2.86;100.00;102912.91;5114206;28;20047;-86
2022/11/12 06:48:35;;;;;;;20.67;9.68;;;;;;;2.85;100.00;102914.75;5115285;28;20075;-86
2022/11/12 06:51:16;;;;;;;14.47;8.93;;;;;;;2.86;100.00;102912.91;5113712;28;20071;-79
2022/11/12 06:53:41;;;;;;;15.57;9.20;;;;;;;2.87;100.00;102926.22;5115991;28;20032;-86
2022/11/12 06:56:07;;;;;;;17.20;9.87;;;;;;;2.87;100.00;102920.00;5096822;28;20126;-88
2022/11/12 06:58:33;;;;;;;20.38;9.30;;;;;;;2.88;100.00;102917.22;5111610;28;20092;-86
2022/11/12 07:01:05;;;;;;;20.67;9.90;;;;;;;2.89;100.00;102918.91;5114607;28;20389;-85
2022/11/12 07:03:33;;;;;;;16.13;9.40;;;;;;;2.92;100.00;102920.50;5114720;28;20050;-85
2022/11/12 07:06:03;;;;;;;17.13;9.73;;;;;;;2.96;100.00;102920.16;5114189;28;20047;-86
2022/11/12 07:08:30;;;;;;;16.60;10.05;;;;;;;2.98;100.00;102918.25;5113938;28;20039;-86
2022/11/12 07:10:56;;;;;;;19.63;9.80;;;;;;;3.03;100.00;102922.38;5130935;27;20468;-85
2022/11/12 07:13:22;;;;;;;21.55;10.23;;;;;;;3.06;100.00;102917.66;5131296;27;20067;-86
2022/11/12 07:15:50;;;;;;;15.70;8.73;;;;;;;3.11;100.00;102920.00;5131016;27;20089;-85
2022/11/12 07:18:15;;;;;;;16.98;9.25;;;;;;;3.16;100.00;102916.00;5096546;28;20627;-86
2022/11/12 07:20:41;;;;;;;19.40;10.13;;;;;;;3.21;100.00;102917.47;5096613;28;20049;-86
2022/11/12 07:23:06;;;;;;;17.70;9.30;;;;;;;3.26;100.00;102923.34;5130397;27;20046;-86
2022/11/12 07:25:34;;;;;;;18.00;9.95;;;;;;;3.28;100.00;102918.72;5130850;27;20035;-85
2022/11/12 07:27:59;;;;;;;22.33;10.43;;;;;;;3.35;100.00;102928.00;5096864;28;20047;-85
2022/11/12 07:30:25;;;;;;;17.90;10.13;;;;;;;3.37;100.00;102915.34;5113118;28;20398;-85
2022/11/12 07:32:50;;;;;;;19.43;10.77;;;;;;;3.40;100.00;102912.41;5096255;28;20081;-85
2022/11/12 07:35:16;;;;;;;22.13;11.43;;;;;;;3.43;100.00;102924.75;5113317;28;20032;-85
2022/11/12 07:37:41;;;;;;;17.08;11.40;;;;;;;3.45;100.00;102917.44;5112857;28;20476;-85
2022/11/12 07:40:07;;;;;;;18.25;10.30;;;;;;;3.50;100.00;102928.69;5130209;27;20077;-85
2022/11/12 07:42:33;;;;;;;18.67;10.27;;;;;;;3.53;100.00;102923.06;5112788;28;20461;-84
2022/11/12 07:44:59;;;;;;;18.70;10.50;;;;;;;3.59;100.00;102929.78;5112542;28;20054;-85
2022/11/12 07:47:24;;;;;;;18.87;10.47;;;;;;;3.65;100.00;102930.16;5095920;28;20043;-85
2022/11/12 07:49:52;;;;;;;20.02;10.48;;;;;;;3.68;100.00;102931.78;5130009;27;20073;-85
2022/11/12 07:52:20;;;;;;;18.88;9.70;;;;;;;3.75;100.00;102930.31;5095421;28;20054;-86
2022/11/12 07:54:46;;;;;;;18.38;10.05;;;;;;;3.81;100.00;102934.34;5130044;27;20036;-86
2022/11/12 07:57:14;;;;;;;17.30;10.07;;;;;;;3.86;100.00;102938.38;5096304;28;20135;-86
2022/11/12 07:59:39;;;;;;;16.13;10.23;;;;;;;3.92;100.00;102942.41;5112626;28;20036;-87
2022/11/12 08:02:08;;;;;;;18.25;10.80;;;;;;;3.98;100.00;102944.63;5114412;28;20123;-84
2022/11/12 08:04:34;;;;;;;19.67;10.20;;;;;;;4.04;100.00;102952.22;5130041;27;20185;-85
2022/11/12 08:07:00;;;;;;;19.37;9.97;;;;;;;4.09;100.00;102940.22;5096600;28;20085;-85
2022/11/12 08:09:25;;;;;;;21.45;10.25;;;;;;;4.17;100.00;102943.19;5112691;28;20039;-85
2022/11/12 08:11:53;;;;;;;17.57;10.00;;;;;;;4.19;100.00;102942.09;5112580;28;20394;-84
2022/11/12 08:14:18;;;;;;;18.38;9.80;;;;;;;4.28;100.00;102945.00;5129384;27;20074;-84
2022/11/12 08:16:45;;;;;;;18.93;10.63;;;;;;;4.34;100.00;102949.88;5114475;28;20200;-84
2022/11/12 08:19:10;;;;;;;21.23;11.38;;;;;;;4.43;100.00;102953.66;5095819;28;20036;-85
2022/11/12 08:21:36;;;;;;;17.23;10.07;;;;;;;4.49;100.00;102955.88;5130132;28;20042;-84
2022/11/12 08:24:02;;;;;;;21.87;10.50;;;;;;;4.56;100.00;102966.03;5112750;28;20114;-84
2022/11/12 08:26:27;;;;;;;16.30;9.63;;;;;;;4.61;100.00;102959.41;5129582;28;20036;-84
2022/11/12 08:28:52;;;;;;;17.40;10.60;;;;;;;4.70;100.00;102959.50;5095279;28;20036;-85
2022/11/12 08:31:21;;;;;;;16.40;10.20;;;;;;;4.79;100.00;102965.13;5112434;28;20031;-86
2022/11/12 08:33:47;;;;;;;19.75;10.27;;;;;;;4.86;100.00;102960.97;5112668;28;20475;-85
2022/11/12 08:36:15;;;;;;;17.13;10.00;;;;;;;4.95;100.00;102957.50;5113526;28;20031;-86
2022/11/12 08:38:41;;;;;;;16.42;9.18;;;;;;;5.02;100.00;102952.47;5116254;28;20043;-86
2022/11/12 08:41:12;;;;;;;14.82;9.45;;;;;;;5.08;100.00;102955.50;5132975;27;20046;-86
2022/11/12 08:43:40;;;;;;;19.25;10.02;;;;;;;5.18;100.00;102952.03;5133832;27;20043;-87
2022/11/12 08:46:06;;;;;;;18.58;9.73;;;;;;;5.26;100.00;102954.97;5132959;27;20047;-87
2022/11/12 08:48:38;;;;;;;19.95;10.73;;;;;;;5.37;100.00;102957.59;5116341;28;20495;-88
2022/11/12 08:51:07;;;;;;;16.67;9.47;;;;;;;5.44;100.00;102953.38;5133335;27;20091;-86
2022/11/12 08:53:32;;;;;;;16.05;9.40;;;;;;;5.53;100.00;102959.84;5115981;28;20459;-86
2022/11/12 08:55:58;;;;;;;18.40;10.32;;;;;;;5.65;100.00;102966.03;5133591;27;20051;-86
2022/11/12 08:58:24;;;;;;;18.57;9.60;;;;;;;5.75;100.00;102952.63;5116575;28;20122;-86
2022/11/12 09:00:50;;;;;;;16.17;9.40;;;;;;;5.86;100.00;102957.09;5133163;27;20039;-85
2022/11/12 09:03:18;;;;;;;17.45;9.50;;;;;;;5.98;100.00;102956.06;5116884;28;20035;-85
2022/11/12 09:05:44;;;;;;;17.00;9.68;;;;;;;6.08;100.00;102945.31;5133001;27;20053;-86
2022/11/12 09:08:13;;;;;;;18.88;9.88;;;;;;;6.19;100.00;102950.63;5133140;27;20032;-86
2022/11/12 09:10:41;;;;;;;19.25;9.48;;;;;;;6.34;100.00;102947.59;5134018;27;20031;-87
2022/11/12 09:13:07;;;;;;;16.75;9.88;;;;;;;6.44;100.00;102948.47;5115571;28;20047;-86
2022/11/12 09:15:35;;;;;;;18.80;9.80;;;;;;;6.56;100.00;102951.91;5132958;27;20039;-86
2022/11/12 09:18:04;;;;;;;15.02;8.70;;;;;;;6.69;100.00;102955.22;5132906;27;20034;-86
2022/11/12 09:20:30;;;;;;;15.05;8.75;;;;;;;6.81;100.00;102954.09;5132485;27;20032;-86
2022/11/12 09:23:06;;;;;;;14.30;8.32;;;;;;;6.96;100.00;102951.84;5132854;27;20043;-86
2022/11/12 09:25:33;;;;;;;15.00;8.35;;;;;;;7.10;100.00;102947.03;5115636;28;20039;-85
2022/11/12 09:28:07;;;;;;;12.52;8.70;;;;;;;7.23;100.00;102952.16;5115155;28;20036;-86
2022/11/12 09:30:33;;;;;;;15.77;8.55;;;;;;;7.36;100.00;102953.56;5116576;28;20047;-86
2022/11/12 09:32:58;;;;;;;13.50;8.35;;;;;;;7.50;100.00;102954.13;5115377;28;20031;-86
2022/11/12 09:35:24;;;;;;;17.90;8.20;;;;;;;7.62;100.00;102946.72;5116217;28;20044;-85
2022/11/12 09:37:49;;;;;;;16.47;8.53;;;;;;;7.71;100.00;102951.28;5115109;28;20391;-86
2022/11/12 09:40:30;;;;;;;15.75;9.02;;;;;;;7.85;100.00;102955.38;5115007;28;20085;-86
2022/11/12 09:42:56;;;;;;;17.43;8.53;;;;;;;7.95;100.00;102956.19;5132838;27;20036;-86
2022/11/12 09:45:31;;;;;;;15.15;7.63;;;;;;;8.05;99.57;102948.91;5114887;28;20494;-86
2022/11/12 09:48:01;;;;;;;14.97;7.67;;;;;;;8.16;98.22;102952.44;5113838;28;20035;-86
2022/11/12 09:50:30;;;;;;;13.45;8.23;;;;;;;8.27;98.40;102957.69;5132117;27;20031;-86
2022/11/12 09:53:12;;;;;;;15.00;8.38;;;;;;;8.37;98.40;102950.38;5132203;27;20047;-86
2022/11/12 09:55:44;;;;;;;15.25;8.45;;;;;;;8.49;97.91;102951.06;5115709;28;20456;-86
2022/11/12 09:58:14;;;;;;;19.85;8.82;;;;;;;8.63;97.74;102952.41;5131848;27;20076;-86
2022/11/12 10:00:48;;;;;;;13.80;8.40;;;;;;;8.74;97.28;102957.63;5114834;28;20459;-86
2022/11/12 10:03:31;;;;;;;13.80;7.95;;;;;;;8.89;97.60;102944.41;5131744;27;20043;-86
2022/11/12 10:06:19;;;;;;;14.98;8.65;;;;;;;9.05;96.38;102940.16;5115260;28;20058;-86
2022/11/12 10:08:59;;;;;;;14.27;8.45;;;;;;;9.21;94.65;102953.88;5132328;27;20042;-86
2022/11/12 10:18:17;;;;;;;13.40;7.50;;;;;;;9.92;92.09;102940.34;5116533;28;20043;-87
2022/11/12 10:20:51;;;;;;;12.73;7.53;;;;;;;10.08;88.50;102932.31;5114767;28;20032;-87
2022/11/12 10:23:19;;;;;;;12.55;7.65;;;;;;;10.27;87.74;102931.22;5131990;27;20352;-87
2022/11/12 10:25:47;;;;;;;13.38;6.95;;;;;;;10.47;85.76;102931.03;5114638;28;20038;-86
2022/11/12 10:28:26;;;;;;;12.97;7.40;;;;;;;10.67;85.82;102924.31;5131808;27;20451;-87
2022/11/12 10:30:57;;;;;;;12.93;6.95;;;;;;;10.85;83.47;102926.88;5132186;27;20028;-87
2022/11/12 10:33:23;;;;;;;12.05;7.55;;;;;;;11.02;82.96;102930.47;5132420;27;20088;-86
2022/11/12 10:35:50;;;;;;;12.80;6.90;;;;;;;11.18;82.83;102936.97;5114426;28;20043;-87
2022/11/12 10:38:22;;;;;;;10.93;6.93;;;;;;;11.41;81.99;102934.41;5114859;28;20108;-86
2022/11/12 10:40:47;;;;;;;10.05;7.20;;;;;;;11.58;81.44;102927.94;5113840;28;20047;-86
2022/11/12 10:43:15;;;;;;;8.67;6.97;;;;;;;11.73;79.69;102929.97;5113803;28;20357;-87
2022/11/12 10:45:46;;;;;;;9.15;6.47;;;;;;;11.88;78.60;102925.50;5114168;28;20035;-86
2022/11/12 10:48:32;;;;;;;11.20;6.22;;;;;;;12.14;80.74;102921.75;5113957;28;20035;-87
2022/11/12 10:50:58;;;;;;;11.88;6.60;;;;;;;12.35;76.73;102915.72;5114504;28;20035;-86
2022/11/12 10:53:46;;;;;;;12.07;6.20;;;;;;;12.47;78.23;102913.44;5113905;28;20129;-86
2022/11/12 10:56:24;;;;;;;6.32;5.32;;;;;;;12.72;75.96;102913.31;5113979;28;20040;-86
2022/11/12 10:59:13;;;;;;;10.68;6.00;;;;;;;13.19;76.72;102909.59;5113521;28;20032;-86
2022/11/12 11:01:38;;;;;;;10.23;5.47;;;;;;;14.55;71.31;102899.44;5131161;27;20103;-86
2022/11/12 11:04:15;;;;;;;14.73;5.80;;;;;;;17.00;66.26;102887.88;5113376;28;20042;-86
2022/11/12 11:06:41;;;;;;;7.57;5.10;;;;;;;19.33;54.43;102882.66;5131042;27;20418;-87
2022/11/12 11:09:13;;;;;;;8.77;5.13;;;;;;;21.42;52.64;102876.16;5130745;27;20050;-88
2022/11/12 11:11:49;;;;;;;8.13;5.10;;;;;;;23.03;49.27;102877.31;5113840;28;20067;-87
2022/11/12 11:14:20;;;;;;;6.85;4.88;;;;;;;24.29;44.81;102897.19;5130536;27;20039;-88
2022/11/12 11:16:52;;;;;;;9.68;5.03;;;;;;;25.74;40.39;102897.41;5114604;28;20496;-87
2022/11/12 11:19:18;;;;;;;7.72;5.03;;;;;;;26.80;34.33;102885.31;5130073;27;20044;-89
2022/11/12 11:22:00;;;;;;;8.77;5.30;;;;;;;27.77;37.00;102884.41;5113427;28;20463;-88
2022/11/12 11:24:34;;;;;;;5.65;4.97;;;;;;;28.31;35.54;102881.97;5113102;28;20151;-88
2022/11/12 11:27:18;;;;;;;5.82;4.80;;;;;;;28.83;39.23;102882.50;5113408;28;20119;-88
2022/11/12 11:30:11;;;;;;;6.72;5.47;;;;;;;29.36;37.28;102876.19;5113262;28;20063;-88
2022/11/12 11:33:22;;;;;;;8.80;5.28;;;;;;;30.68;38.93;102868.38;5113208;28;20027;-88
2022/11/12 11:36:14;;;;;;;8.00;5.30;;;;;;;31.83;34.03;102864.91;5034723;28;20485;-88
2022/11/12 11:38:57;;;;;;;7.78;4.95;;;;;;;32.48;28.05;102862.09;5035423;28;20040;-89
2022/11/12 11:41:37;;;;;;;6.18;4.93;;;;;;;33.57;28.17;102856.19;5097233;28;20422;-89
2022/11/12 11:44:38;;;;;;;7.53;5.32;;;;;;;34.24;26.87;102842.13;5114882;28;20395;-88
2022/11/12 11:47:32;;;;;;;6.68;4.53;;;;;;;35.33;27.21;102833.69;5105641;28;20070;-88
2022/11/12 11:50:21;;;;;;;5.10;4.43;;;;;;;35.71;22.38;102832.84;5114315;28;20110;-89
2022/11/12 11:53:14;;;;;;;5.60;5.10;;;;;;;36.68;24.86;102822.44;5113985;28;20079;-89